createdAt,value
2023-05-23T00:01:58.668Z,78.97
2023-05-23T00:04:27.311Z,77.97
2023-05-23T00:06:56.550Z,78.91
2023-05-23T00:09:24.313Z,79.16
2023-05-23T00:11:51.856Z,78.64
2023-05-23T00:14:19.446Z,77.94
2023-05-23T00:16:49.576Z,77.53
2023-05-23T00:19:17.487Z,77.13
2023-05-23T00:21:48.652Z,77.06
2023-05-23T00:24:18.642Z,77.49
2023-05-23T00:26:46.352Z,77.75
2023-05-23T00:29:16.483Z,78.81
2023-05-23T00:31:46.350Z,78.78
2023-05-23T00:34:15.073Z,79.27
2023-05-23T00:36:43.670Z,79.68
2023-05-23T00:39:18.959Z,80.45
2023-05-23T00:41:51.484Z,79.51
2023-05-23T00:44:21.383Z,79.26
2023-05-23T00:46:52.896Z,78.98
2023-05-23T00:49:20.992Z,80.03
2023-05-23T00:51:49.555Z,79.86
2023-05-23T00:54:19.784Z,80.43
2023-05-23T00:56:48.755Z,81.59
2023-05-23T00:59:16.865Z,80.09
2023-05-23T01:01:46.923Z,79.31
2023-05-23T01:04:16.760Z,80.17
2023-05-23T01:06:46.902Z,81.31
2023-05-23T01:09:14.833Z,80.95
2023-05-23T01:11:47.237Z,81.82
2023-05-23T01:14:20.377Z,82.08
2023-05-23T01:16:49.973Z,82.30
2023-05-23T01:19:29.692Z,80.96
2023-05-23T01:22:01.996Z,80.91
2023-05-23T01:24:36.345Z,80.41
2023-05-23T01:27:11.746Z,79.44
2023-05-23T01:29:43.396Z,79.19
2023-05-23T01:32:13.388Z,78.67
2023-05-23T01:34:42.461Z,78.31
2023-05-23T01:37:11.086Z,78.12
2023-05-23T01:39:39.591Z,79.18
2023-05-23T01:42:08.195Z,79.47
2023-05-23T01:44:36.736Z,78.85
2023-05-23T01:47:07.132Z,77.95
2023-05-23T01:49:35.393Z,78.18
2023-05-23T01:52:03.249Z,77.97
2023-05-23T01:54:32.390Z,79.34
2023-05-23T01:57:00.317Z,78.70
2023-05-23T01:59:28.028Z,79.72
2023-05-23T02:01:57.335Z,78.82
2023-05-23T02:04:26.264Z,79.08
2023-05-23T02:06:53.784Z,79.85
2023-05-23T02:09:21.356Z,80.81
2023-05-23T02:11:48.964Z,80.62
2023-05-23T02:14:16.537Z,80.83
2023-05-23T02:16:44.695Z,81.75
2023-05-23T02:19:12.353Z,82.12
2023-05-23T02:21:41.372Z,81.44
2023-05-23T02:24:08.918Z,81.22
2023-05-23T02:26:37.058Z,80.61
2023-05-23T02:29:04.649Z,80.36
2023-05-23T02:31:32.252Z,80.78
2023-05-23T02:34:00.064Z,80.08
2023-05-23T02:36:27.759Z,80.49
2023-05-23T02:38:57.514Z,81.24
2023-05-23T02:41:25.074Z,81.41
2023-05-23T02:43:52.701Z,81.22
2023-05-23T02:46:20.532Z,81.35
2023-05-23T02:48:49.146Z,81.82
2023-05-23T02:51:16.831Z,81.76
2023-05-23T02:53:44.384Z,81.86
2023-05-23T02:56:13.748Z,82.73
2023-05-23T02:58:41.289Z,83.23
2023-05-23T03:01:09.606Z,82.09
2023-05-23T03:03:37.435Z,82.39
2023-05-23T03:06:06.378Z,81.74
2023-05-23T03:08:34.138Z,81.69
2023-05-23T03:11:01.808Z,82.09
2023-05-23T03:13:31.587Z,82.88
2023-05-23T03:15:59.397Z,82.98
2023-05-23T03:18:27.099Z,83.12
2023-05-23T03:20:54.745Z,82.25
2023-05-23T03:23:24.413Z,82.34
2023-05-23T03:25:52.101Z,82.44
2023-05-23T03:28:19.799Z,82.21
2023-05-23T03:30:48.839Z,82.43
2023-05-23T03:33:16.589Z,82.73
2023-05-23T03:35:44.775Z,82.84
2023-05-23T03:38:12.434Z,82.16
2023-05-23T03:40:40.163Z,81.91
2023-05-23T03:43:08.075Z,81.67
2023-05-23T03:45:38.702Z,80.98
2023-05-23T03:48:13.972Z,81.18
2023-05-23T03:50:42.987Z,81.30
2023-05-23T03:53:12.133Z,81.71
2023-05-23T03:55:40.492Z,80.89
2023-05-23T03:58:08.410Z,81.18
2023-05-23T04:00:36.047Z,81.11
2023-05-23T04:03:08.922Z,81.81
2023-05-23T04:05:38.439Z,81.99
2023-05-23T04:08:06.925Z,81.84
2023-05-23T04:10:34.792Z,82.31
2023-05-23T04:13:02.554Z,82.20
2023-05-23T04:15:30.312Z,82.39
2023-05-23T04:18:01.904Z,83.53
2023-05-23T04:20:29.628Z,82.60
2023-05-23T04:22:58.528Z,82.44
2023-05-23T04:25:27.652Z,82.30
2023-05-23T04:28:05.376Z,82.17
2023-05-23T04:30:33.673Z,82.83
2023-05-23T04:33:01.445Z,83.14
2023-05-23T04:35:30.132Z,82.96
2023-05-23T04:37:59.087Z,83.59
2023-05-23T04:40:28.395Z,83.35
2023-05-23T04:43:16.461Z,83.52
2023-05-23T04:45:51.593Z,83.27
2023-05-23T04:48:29.316Z,82.36
2023-05-23T04:51:02.062Z,82.46
2023-05-23T04:53:31.741Z,83.04
2023-05-23T04:56:00.042Z,82.98
2023-05-23T04:58:27.629Z,83.10
2023-05-23T05:00:58.798Z,82.62
2023-05-23T05:03:26.601Z,83.17
2023-05-23T05:05:54.441Z,82.84
2023-05-23T05:08:22.036Z,82.97
2023-05-23T05:10:51.138Z,82.33
2023-05-23T05:13:20.471Z,82.59
2023-05-23T05:15:53.770Z,83.29
2023-05-23T05:18:21.365Z,83.17
2023-05-23T05:20:48.921Z,83.56
2023-05-23T05:23:16.995Z,83.13
2023-05-23T05:25:45.955Z,82.86
2023-05-23T05:28:14.861Z,82.31
2023-05-23T05:30:46.356Z,81.64
2023-05-23T05:33:14.137Z,81.20
2023-05-23T05:35:42.427Z,81.29
2023-05-23T05:38:11.112Z,80.75
2023-05-23T05:40:40.147Z,81.50
2023-05-23T05:43:08.006Z,81.22
2023-05-23T05:45:37.240Z,80.71
2023-05-23T05:48:05.274Z,80.68
2023-05-23T05:50:33.469Z,80.32
2023-05-23T05:53:01.792Z,79.99
2023-05-23T05:55:29.379Z,80.13
2023-05-23T05:57:57.437Z,79.17
2023-05-23T06:00:26.826Z,79.15
2023-05-23T06:02:58.715Z,78.99
2023-05-23T06:05:43.192Z,79.04
2023-05-23T06:08:12.379Z,79.73
2023-05-23T06:10:40.428Z,78.99
2023-05-23T06:13:08.188Z,78.61
2023-05-23T06:15:37.367Z,78.53
2023-05-23T06:18:06.339Z,78.50
2023-05-23T06:20:33.974Z,79.09
2023-05-23T06:23:05.677Z,79.37
2023-05-23T06:25:33.597Z,78.95
2023-05-23T06:28:01.270Z,78.87
2023-05-23T06:30:29.425Z,78.86
2023-05-23T06:32:57.166Z,78.72
2023-05-23T06:35:27.609Z,78.78
2023-05-23T06:37:55.145Z,78.65
2023-05-23T06:40:22.750Z,77.98
2023-05-23T06:42:51.671Z,78.44
2023-05-23T06:45:51.227Z,77.94
2023-05-23T06:48:18.902Z,77.45
2023-05-23T06:50:50.088Z,77.25
2023-05-23T06:53:19.350Z,78.11
2023-05-23T06:55:48.168Z,77.77
2023-05-23T06:58:18.907Z,77.44
2023-05-23T07:00:47.369Z,76.75
2023-05-23T07:03:33.748Z,76.50
2023-05-23T07:06:08.437Z,76.63
2023-05-23T07:08:36.335Z,76.59
2023-05-23T07:11:06.320Z,76.76
2023-05-23T07:13:39.428Z,76.73
2023-05-23T07:16:07.397Z,76.46
2023-05-23T07:18:40.605Z,75.22
2023-05-23T07:21:10.417Z,75.20
2023-05-23T07:23:38.229Z,75.52
2023-05-23T07:26:05.829Z,75.59
2023-05-23T07:28:41.269Z,75.47
2023-05-23T07:31:09.558Z,75.55
2023-05-23T07:33:38.534Z,74.66
2023-05-23T07:36:07.801Z,74.89
2023-05-23T07:38:36.737Z,74.99
2023-05-23T07:41:11.406Z,75.28
2023-05-23T07:43:41.158Z,75.49
2023-05-23T07:46:09.037Z,76.93
2023-05-23T07:48:37.612Z,77.67
2023-05-23T07:51:05.382Z,78.58
2023-05-23T07:53:32.942Z,79.19
2023-05-23T07:56:02.312Z,79.14
2023-05-23T07:58:34.408Z,79.11
2023-05-23T08:01:03.600Z,80.32
2023-05-23T08:03:58.881Z,79.40
2023-05-23T08:06:33.653Z,79.36
2023-05-23T08:09:06.549Z,78.96
2023-05-23T08:11:37.562Z,78.57
2023-05-23T08:14:06.655Z,78.75
2023-05-23T08:16:48.379Z,78.67
2023-05-23T08:19:23.252Z,78.23
2023-05-23T08:21:53.126Z,78.45
2023-05-23T08:24:21.183Z,78.55
2023-05-23T08:26:51.006Z,77.59
2023-05-23T08:29:19.341Z,76.66
2023-05-23T08:31:47.795Z,74.67
2023-05-23T08:34:15.497Z,74.66
2023-05-23T08:36:43.542Z,74.26
2023-05-23T08:39:16.406Z,73.81
2023-05-23T08:41:51.752Z,72.48
2023-05-23T08:44:19.542Z,72.35
2023-05-23T08:46:51.571Z,71.73
2023-05-23T08:49:38.664Z,71.18
2023-05-23T08:52:08.721Z,70.24
2023-05-23T08:54:36.825Z,69.18
2023-05-23T08:57:06.438Z,68.14
2023-05-23T08:59:40.815Z,67.93
2023-05-23T09:02:13.178Z,65.56
2023-05-23T09:04:41.311Z,64.45
2023-05-23T09:07:18.551Z,64.87
2023-05-23T09:09:48.868Z,65.27
2023-05-23T09:12:22.326Z,64.58
2023-05-23T09:14:50.252Z,62.93
2023-05-23T09:17:19.911Z,63.13
2023-05-23T09:19:48.465Z,61.85
2023-05-23T09:22:27.571Z,61.31
2023-05-23T09:25:03.321Z,60.03
2023-05-23T09:27:32.460Z,59.65
2023-05-23T09:30:06.865Z,59.63
2023-05-23T09:32:34.459Z,59.00
2023-05-23T09:35:04.060Z,60.56
2023-05-23T09:37:32.778Z,61.09
2023-05-23T09:40:01.598Z,61.17
2023-05-23T09:42:34.938Z,61.30
2023-05-23T09:45:04.724Z,60.89
2023-05-23T09:47:32.753Z,60.52
2023-05-23T09:50:00.380Z,61.07
2023-05-23T09:52:28.249Z,62.75
2023-05-23T09:54:56.117Z,63.00
2023-05-23T09:57:24.776Z,61.64
2023-05-23T09:59:55.277Z,61.18
2023-05-23T10:02:42.655Z,61.26
2023-05-23T10:05:15.279Z,60.94
2023-05-23T10:07:43.690Z,60.59
2023-05-23T10:10:12.177Z,60.52
2023-05-23T10:12:45.833Z,60.98
2023-05-23T10:15:17.336Z,59.79
2023-05-23T10:18:03.844Z,58.43
2023-05-23T10:20:33.075Z,58.70
2023-05-23T10:23:01.781Z,58.52
2023-05-23T10:25:29.541Z,58.35
2023-05-23T10:28:01.603Z,55.84
2023-05-23T10:30:32.342Z,55.15
2023-05-23T10:33:00.320Z,55.37
2023-05-23T10:35:37.828Z,55.09
2023-05-23T10:38:12.499Z,54.07
2023-05-23T10:40:48.830Z,55.68
2023-05-23T10:43:20.515Z,56.45
2023-05-23T10:45:50.775Z,56.05
2023-05-23T10:48:22.800Z,56.08
2023-05-23T10:51:06.056Z,55.45
2023-05-23T10:53:36.890Z,56.45
2023-05-23T10:56:06.194Z,56.75
2023-05-23T10:58:34.385Z,56.93
2023-05-23T11:01:06.504Z,55.81
2023-05-23T11:03:36.263Z,55.89
2023-05-23T11:06:04.627Z,55.68
2023-05-23T11:08:47.807Z,55.44
2023-05-23T11:11:16.269Z,54.81
2023-05-23T11:13:56.749Z,56.17
2023-05-23T11:16:30.549Z,57.22
2023-05-23T11:19:28.034Z,55.96
2023-05-23T11:21:58.235Z,55.54
2023-05-23T11:24:49.793Z,56.99
2023-05-23T11:27:20.093Z,57.18
2023-05-23T11:29:58.396Z,59.04
2023-05-23T11:32:29.107Z,59.25
2023-05-23T11:34:56.770Z,59.96
2023-05-23T11:37:27.191Z,61.31
2023-05-23T11:39:55.068Z,61.58
2023-05-23T11:42:23.672Z,65.01
2023-05-23T11:44:51.571Z,67.17
2023-05-23T11:47:19.500Z,68.03
2023-05-23T11:49:48.583Z,67.86
2023-05-23T11:52:16.528Z,69.79
2023-05-23T11:54:44.256Z,70.67
2023-05-23T11:57:12.620Z,71.34
2023-05-23T11:59:40.190Z,70.47
2023-05-23T12:02:08.385Z,71.05
2023-05-23T12:04:37.451Z,69.68
2023-05-23T12:07:09.279Z,71.66
2023-05-23T12:09:43.973Z,71.98
2023-05-23T12:12:11.854Z,72.40
2023-05-23T12:14:44.542Z,71.60
2023-05-23T12:17:12.913Z,72.42
2023-05-23T12:19:40.934Z,73.22
2023-05-23T12:22:10.046Z,72.89
2023-05-23T12:24:37.835Z,74.03
2023-05-23T12:27:05.556Z,74.38
2023-05-23T12:29:35.611Z,74.47
2023-05-23T12:32:04.948Z,72.60
2023-05-23T12:34:32.638Z,72.91
2023-05-23T12:37:18.133Z,73.43
2023-05-23T12:39:48.915Z,72.98
2023-05-23T12:42:16.615Z,74.48
2023-05-23T12:44:45.953Z,73.50
2023-05-23T12:47:13.732Z,73.93
2023-05-23T12:49:41.334Z,72.83
2023-05-23T12:52:08.877Z,72.76
2023-05-23T12:54:36.483Z,71.95
2023-05-23T12:57:05.445Z,71.87
2023-05-23T12:59:33.055Z,71.08
2023-05-23T13:02:01.720Z,72.66
2023-05-23T13:04:31.999Z,71.92
2023-05-23T13:07:00.025Z,72.26
2023-05-23T13:09:27.562Z,73.26
2023-05-23T13:11:55.614Z,73.08
2023-05-23T13:14:24.742Z,73.99
2023-05-23T13:16:52.334Z,74.71
2023-05-23T13:19:19.957Z,76.68
2023-05-23T13:21:49.545Z,77.59
2023-05-23T13:24:17.736Z,79.07
2023-05-23T13:26:45.379Z,79.46
2023-05-23T13:29:13.154Z,80.18
2023-05-23T13:31:42.115Z,81.77
2023-05-23T13:34:09.729Z,81.31
2023-05-23T13:36:37.273Z,80.56
2023-05-23T13:39:05.074Z,80.31
2023-05-23T13:41:32.654Z,81.58
2023-05-23T13:44:00.170Z,80.78
2023-05-23T13:46:27.803Z,79.41
2023-05-23T13:48:56.840Z,80.65
2023-05-23T13:51:24.369Z,79.94
2023-05-23T13:53:52.119Z,79.50
2023-05-23T13:56:19.665Z,80.56
2023-05-23T13:58:47.618Z,79.45
2023-05-23T14:01:15.199Z,79.10
2023-05-23T14:03:42.722Z,80.24
2023-05-23T14:06:11.595Z,79.98
2023-05-23T14:08:39.104Z,79.62
2023-05-23T14:11:06.806Z,79.58
2023-05-23T14:13:34.335Z,79.10
2023-05-23T14:16:02.150Z,79.74
2023-05-23T14:18:29.719Z,79.56
2023-05-23T14:20:57.254Z,77.37
2023-05-23T14:23:26.127Z,77.30
2023-05-23T14:25:53.649Z,77.32
2023-05-23T14:28:21.321Z,77.62
2023-05-23T14:30:49.022Z,78.38
2023-05-23T14:33:16.708Z,77.02
2023-05-23T14:35:44.433Z,75.88
2023-05-23T14:38:12.018Z,76.42
2023-05-23T14:40:40.897Z,75.96
2023-05-23T14:43:08.621Z,75.06
2023-05-23T14:45:36.225Z,75.30
2023-05-23T14:48:03.855Z,75.16
2023-05-23T14:50:31.561Z,75.11
2023-05-23T14:52:59.621Z,75.05
2023-05-23T14:55:27.249Z,74.55
2023-05-23T14:57:56.591Z,75.18
2023-05-23T15:00:24.969Z,75.76
2023-05-23T15:02:55.260Z,75.96
2023-05-23T15:05:23.051Z,76.62
2023-05-23T15:07:51.121Z,77.09
2023-05-23T15:10:18.814Z,78.27
2023-05-23T15:12:46.351Z,78.40
2023-05-23T15:15:16.783Z,78.23
2023-05-23T15:17:44.637Z,77.73
2023-05-23T15:20:13.021Z,77.54
2023-05-23T15:22:40.600Z,76.88
2023-05-23T15:25:08.936Z,75.39
2023-05-23T15:27:36.497Z,75.15
2023-05-23T15:30:05.875Z,74.31
2023-05-23T15:32:34.796Z,74.73
2023-05-23T15:35:02.378Z,75.03
2023-05-23T15:37:29.953Z,74.78
2023-05-23T15:39:57.472Z,75.38
2023-05-23T15:42:25.047Z,75.79
2023-05-23T15:44:52.777Z,76.47
2023-05-23T15:47:20.883Z,76.10
2023-05-23T15:49:49.814Z,75.66
2023-05-23T15:52:17.367Z,74.63
2023-05-23T15:54:44.905Z,74.51
2023-05-23T15:57:12.432Z,74.67
2023-05-23T15:59:40.351Z,74.46
2023-05-23T16:02:10.189Z,75.19
2023-05-23T16:04:38.883Z,74.81
2023-05-23T16:07:07.774Z,74.53
2023-05-23T16:09:35.437Z,74.68
2023-05-23T16:12:03.006Z,75.66
2023-05-23T16:14:31.236Z,75.30
2023-05-23T16:17:02.752Z,75.13
2023-05-23T16:19:30.603Z,75.64
2023-05-23T16:21:58.397Z,76.27
2023-05-23T16:24:28.137Z,76.63
2023-05-23T16:26:55.860Z,77.14
2023-05-23T16:29:23.503Z,77.16
2023-05-23T16:31:51.074Z,77.53
2023-05-23T16:34:18.650Z,76.68
2023-05-23T16:36:46.383Z,77.30
2023-05-23T16:39:14.284Z,76.59
2023-05-23T16:41:43.212Z,76.95
2023-05-23T16:44:11.011Z,76.75
2023-05-23T16:46:38.714Z,77.11
2023-05-23T16:49:06.267Z,77.98
2023-05-23T16:51:33.808Z,78.79
2023-05-23T16:54:01.332Z,78.27
2023-05-23T16:56:28.877Z,76.91
2023-05-23T16:58:57.742Z,76.94
2023-05-23T17:01:25.641Z,77.23
2023-05-23T17:03:53.417Z,77.53
2023-05-23T17:06:21.194Z,77.93
2023-05-23T17:08:49.867Z,78.77
2023-05-23T17:11:17.909Z,80.76
2023-05-23T17:13:45.472Z,79.71
2023-05-23T17:16:17.457Z,80.22
2023-05-23T17:18:47.005Z,80.42
2023-05-23T17:21:14.546Z,80.91
2023-05-23T17:23:42.141Z,80.55
2023-05-23T17:26:10.798Z,78.98
2023-05-23T17:28:38.336Z,79.82
2023-05-23T17:31:06.532Z,79.60
2023-05-23T17:33:36.241Z,80.29
2023-05-23T17:36:03.791Z,79.82
2023-05-23T17:38:31.362Z,80.33
2023-05-23T17:40:58.893Z,81.90
2023-05-23T17:43:26.429Z,81.88
2023-05-23T17:45:55.265Z,80.73
2023-05-23T17:48:31.425Z,80.62
2023-05-23T17:51:07.595Z,80.21
2023-05-23T17:53:36.943Z,79.83
2023-05-23T17:56:04.533Z,79.92
2023-05-23T17:58:32.079Z,79.61
2023-05-23T18:00:59.620Z,79.48
2023-05-23T18:03:27.228Z,79.24
2023-05-23T18:05:54.722Z,78.71
2023-05-23T18:08:23.740Z,80.17
2023-05-23T18:10:51.317Z,79.35
2023-05-23T18:13:18.884Z,79.74
2023-05-23T18:15:46.441Z,79.33
2023-05-23T18:18:14.041Z,79.09
2023-05-23T18:20:41.736Z,79.27
2023-05-23T18:23:09.440Z,79.57
2023-05-23T18:25:38.299Z,78.78
2023-05-23T18:28:05.948Z,78.93
2023-05-23T18:30:33.623Z,79.01
2023-05-23T18:33:01.519Z,77.68
2023-05-23T18:35:29.146Z,78.22
2023-05-23T18:37:56.702Z,78.40
2023-05-23T18:40:26.100Z,78.73
2023-05-23T18:42:54.969Z,77.88
2023-05-23T18:45:22.536Z,77.44
2023-05-23T18:47:50.803Z,76.91
2023-05-23T18:50:20.315Z,78.32
2023-05-23T18:52:47.896Z,77.67
2023-05-23T18:55:16.442Z,77.92
2023-05-23T18:57:43.988Z,78.40
2023-05-23T19:00:14.556Z,77.90
2023-05-23T19:02:44.548Z,77.46
2023-05-23T19:05:12.581Z,77.60
2023-05-23T19:07:40.794Z,77.67
2023-05-23T19:10:09.261Z,77.77
2023-05-23T19:12:38.755Z,77.68
2023-05-23T19:15:09.213Z,78.48
2023-05-23T19:17:39.207Z,78.05
2023-05-23T19:20:09.590Z,79.30
2023-05-23T19:22:50.456Z,78.65
2023-05-23T19:25:19.180Z,79.04
2023-05-23T19:27:46.796Z,79.50
2023-05-23T19:30:14.540Z,80.55
2023-05-23T19:32:43.493Z,78.75
2023-05-23T19:35:11.984Z,78.38
2023-05-23T19:37:41.808Z,77.21
2023-05-23T19:40:10.648Z,77.59
2023-05-23T19:42:38.179Z,77.12
2023-05-23T19:45:06.856Z,77.56
2023-05-23T19:47:34.471Z,78.01
2023-05-23T19:50:03.375Z,76.41
2023-05-23T19:52:30.952Z,76.45
2023-05-23T19:54:58.527Z,75.89
2023-05-23T19:57:26.619Z,76.11
2023-05-23T19:59:54.158Z,76.48
2023-05-23T20:02:22.022Z,78.25
2023-05-23T20:04:49.593Z,77.63
2023-05-23T20:07:18.694Z,77.01
2023-05-23T20:09:46.256Z,77.38
2023-05-23T20:12:13.887Z,77.19
2023-05-23T20:14:41.523Z,76.24
2023-05-23T20:17:09.234Z,77.69
2023-05-23T20:19:37.017Z,76.58
2023-05-23T20:22:04.709Z,77.48
2023-05-23T20:24:33.614Z,79.07
2023-05-23T20:27:01.313Z,77.25
2023-05-23T20:29:28.817Z,77.16
2023-05-23T20:31:56.435Z,76.65
2023-05-23T20:34:23.993Z,76.87
2023-05-23T20:36:51.530Z,77.07
2023-05-23T20:39:20.672Z,76.08
2023-05-23T20:41:50.800Z,76.07
2023-05-23T20:44:18.478Z,75.43
2023-05-23T20:46:47.497Z,75.02
2023-05-23T20:49:15.680Z,75.00
2023-05-23T20:51:43.861Z,74.66
2023-05-23T20:54:14.405Z,74.69
2023-05-23T20:56:41.958Z,75.28
2023-05-23T20:59:12.176Z,75.35
2023-05-23T21:01:40.238Z,74.42
2023-05-23T21:04:07.894Z,75.55
2023-05-23T21:06:36.725Z,75.00
2023-05-23T21:09:04.280Z,75.66
2023-05-23T21:11:31.805Z,75.59
2023-05-23T21:13:59.397Z,75.75
2023-05-23T21:16:28.580Z,74.57
2023-05-23T21:18:56.966Z,75.10
2023-05-23T21:21:24.523Z,74.42
2023-05-23T21:23:52.120Z,74.66
2023-05-23T21:26:19.621Z,73.58
2023-05-23T21:28:47.115Z,74.61
2023-05-23T21:31:15.103Z,73.63
2023-05-23T21:33:44.078Z,74.50
2023-05-23T21:36:13.421Z,74.88
2023-05-23T21:38:41.792Z,76.11
2023-05-23T21:41:09.317Z,76.88
2023-05-23T21:43:36.841Z,77.42
2023-05-23T21:46:04.416Z,77.07
2023-05-23T21:48:32.125Z,76.46
2023-05-23T21:51:00.979Z,76.41
2023-05-23T21:53:28.627Z,75.30
2023-05-23T21:55:56.221Z,76.00
2023-05-23T21:58:23.776Z,76.11
2023-05-23T22:00:51.452Z,75.92
2023-05-23T22:03:19.057Z,76.68
2023-05-23T22:05:46.939Z,75.76
2023-05-23T22:08:16.187Z,75.93
2023-05-23T22:10:44.102Z,75.24
2023-05-23T22:13:11.783Z,74.60
2023-05-23T22:15:39.480Z,74.48
2023-05-23T22:18:07.539Z,73.62
2023-05-23T22:20:38.442Z,73.51
2023-05-23T22:23:07.411Z,72.60
2023-05-23T22:25:38.282Z,72.85
2023-05-23T22:28:06.225Z,71.46
2023-05-23T22:30:34.231Z,70.56
2023-05-23T22:33:02.306Z,69.64
2023-05-23T22:35:29.874Z,69.44
2023-05-23T22:37:57.388Z,69.39
2023-05-23T22:40:27.041Z,70.38
2023-05-23T22:42:56.883Z,69.94
2023-05-23T22:45:24.437Z,69.63
2023-05-23T22:47:54.091Z,69.14
2023-05-23T22:50:22.605Z,69.00
2023-05-23T22:52:50.621Z,68.81
2023-05-23T22:55:18.144Z,69.64
2023-05-23T22:57:45.709Z,69.35
2023-05-23T23:00:15.363Z,68.88
2023-05-23T23:02:44.412Z,68.63
2023-05-23T23:05:12.280Z,68.41
2023-05-23T23:07:39.863Z,68.64
2023-05-23T23:10:09.743Z,69.51
2023-05-23T23:12:37.307Z,69.56
2023-05-23T23:15:05.662Z,69.87
2023-05-23T23:17:34.569Z,69.76
2023-05-23T23:20:02.097Z,69.87
2023-05-23T23:22:29.666Z,69.71
2023-05-23T23:24:57.186Z,69.80
2023-05-23T23:27:30.673Z,69.49
2023-05-23T23:29:58.311Z,68.54
2023-05-23T23:32:26.083Z,68.65
2023-05-23T23:34:55.085Z,68.48
2023-05-23T23:37:22.639Z,68.36
2023-05-23T23:39:50.226Z,67.75
2023-05-23T23:42:17.775Z,67.49
2023-05-23T23:44:45.353Z,68.25
2023-05-23T23:47:12.891Z,67.35
2023-05-23T23:49:40.611Z,67.48
2023-05-23T23:52:09.624Z,67.45
2023-05-23T23:54:37.176Z,66.80
2023-05-23T23:57:06.587Z,66.87
2023-05-23T23:59:34.147Z,67.38
